^^
LKKV - Karlovy Vary, Czech Republic
Entfernung von Station: O 36km
Aktualisierung: 18.08.2018 10:30
Klar
Klar
 Wind von N
Wind: N 7 km/h
Temperatur: 22°C
Taupunkt: 12°C
Luftfeuchte: 53%
Luftdruck: 1022 hPa
Zusammenfassung: Klar
Sicht: mehr als 10 km
2018/08/18 08:30 LKKV 180830Z 36004KT 300V060 CAVOK 22/12 Q1022
EDQM - Hof, Germany
Entfernung von Station: W 40km
Aktualisierung: 18.08.2018 10:20
stark bewölkt
stark bewölkt
 Wind von NNO
Wind: NNO 13 km/h
Temperatur: 18°C
Taupunkt: 13°C
Luftfeuchte: 73%
Luftdruck: 1023 hPa
Wolken: stark bewölkt
Sicht: 10 km
Wolken Details: stark bewölkt 366 m
2018/08/18 08:20 EDQM 180820Z 03007KT 350V080 9999 BKN012 18/13 Q1023
 
ETIC - Grafenwoehr, Germany
Entfernung von Station: SSW 72km
Aktualisierung: 18.08.2018 09:56
Klar
Klar
 Wind von calm
Wind: Windstill
Temperatur: 23°C
Taupunkt: 14°C
Luftfeuchte: 57%
Luftdruck: 1020.7 hPa
Wolken: Klar
Sicht: 10 km
2018/08/18 07:56 ETIC 180756Z AUTO 00000KT 9999 CLR 23/14 A3014 RMK AO2 SLP193 T02320139 TSNO $
EDAC - Altenburg-Nobitz, Germany
Entfernung von Station: N 80km
Aktualisierung: 18.08.2018 10:20
stark bewölkt
stark bewölkt
 Wind von veränderlich
Wind: veränderlich 4 km/h
Temperatur: 20°C
Taupunkt: 16°C
Luftfeuchte: 78%
Luftdruck: 1022 hPa
Wolken: stark bewölkt
Sicht: 10 km
Wolken Details: teils wolkig 396 m
stark bewölkt 701 m
2018/08/18 08:20 EDAC 180820Z VRB02KT 9999 FEW013 BKN023 20/16 Q1022
 
LKLN - Plzen Line, Czech Republic
Entfernung von Station: SO 88km
Aktualisierung: 18.08.2018 10:00
Klar
Klar
 Wind von veränderlich
Wind: veränderlich 4 km/h
Temperatur: 23°C
Taupunkt: 13°C
Luftfeuchte: 53%
Luftdruck: 1021 hPa
Zusammenfassung: Klar
Sicht: mehr als 10 km
2018/08/18 08:00 LKLN 180800Z AUTO VRB02KT CAVOK 23/13 Q1021
ETIH - Hohenfels (usa-A, Germany
Entfernung von Station: SSW 124km
Aktualisierung: 18.08.2018 09:56
wolkig
wolkig
 Wind von O
Wind: O 7 km/h
Temperatur: 24°C
Taupunkt: 15°C
Luftfeuchte: 57%
Luftdruck: 1021 hPa
Wolken: wolkig
Sicht: 10 km
Wolken Details: wolkig 3962 m
2018/08/18 07:56 ETIH 180756Z AUTO 08004KT 9999 SCT130 24/15 A3015 RMK AO2 SLP193 T02350145 $
 
EDDE - Erfurt/Bindersleben, Germany
Entfernung von Station: NW 129km
Aktualisierung: 18.08.2018 10:20
stark bewölkt
stark bewölkt
 Wind von N
Wind: N 7 km/h
Temperatur: 19°C
Taupunkt: 14°C
Luftfeuchte: 73%
Luftdruck: 1022 hPa
Wolken: stark bewölkt
Sicht: 10 km
Wolken Details: stark bewölkt 853 m
2018/08/18 08:20 EDDE 180820Z 35004KT 310V100 9999 BKN028 19/14 Q1022 NOSIG
EDDP - Leipzig/Schkeudidtz, Germany
Entfernung von Station: N 129km
Aktualisierung: 18.08.2018 10:20
stark bewölkt
stark bewölkt
 Wind von N
Wind: N 9 km/h
Temperatur: 21°C
Taupunkt: 14°C
Luftfeuchte: 64%
Luftdruck: 1022 hPa
Wolken: stark bewölkt
Sicht: 10 km
Wolken Details: teils wolkig 792 m
stark bewölkt 1158 m
2018/08/18 08:20 EDDP 180820Z 01005KT 320V050 9999 FEW026 BKN038 21/14 Q1022 NOSIG
 
EDDN - Nuernberg, Germany
Entfernung von Station: SW 130km
Aktualisierung: 18.08.2018 10:20
Klar
Klar
 Wind von NW
Wind: NW 9 km/h
Temperatur: 22°C
Taupunkt: 15°C
Luftfeuchte: 65%
Luftdruck: 1021 hPa
Zusammenfassung: Klar
Sicht: mehr als 10 km
2018/08/18 08:20 EDDN 180820Z 31005KT 270V010 CAVOK 22/15 Q1021 NOSIG
LKPR - Prague/Ruzyne, Czech Republic
Entfernung von Station: O 133km
Aktualisierung: 18.08.2018 10:30
Klar
Klar
 Wind von NNW
Wind: NNW 19 km/h
Temperatur: 23°C
Taupunkt: 14°C
Luftfeuchte: 57%
Luftdruck: 1021 hPa
Zusammenfassung: Klar
Sicht: mehr als 10 km
2018/08/18 08:30 LKPR 180830Z 33010KT CAVOK 23/14 Q1021 NOSIG
 
EDDC - Dresden/Klotzsche, Germany
Entfernung von Station: NO 134km
Aktualisierung: 18.08.2018 10:20
stark bewölkt
stark bewölkt
 Wind von NNO
Wind: NNO 6 km/h
Temperatur: 20°C
Taupunkt: 16°C
Luftfeuchte: 78%
Luftdruck: 1022 hPa
Wolken: stark bewölkt
Sicht: 10 km
Wolken Details: teils wolkig 396 m
stark bewölkt 914 m
2018/08/18 08:20 EDDC 180820Z 03003KT 300V110 9999 FEW013 BKN030 20/16 Q1022 NOSIG
Besucherstatistik
Besucher gesamt: 1.094.021
Besucher heute: 294
Besucher gestern: 726
gerade online: 14
Seitenaufrufe diese Seite: 3.620
counter Statistiken